Time;durP1;ratioP1;P1;durP2;ratioP2;P2;SDS_P1;SDS_P2;PMS_P1;PMS_P2;Temp;Humidity;BMP_temperature;BMP_pressure;BME280_temperature;BME280_humidity;BME280_pressure;Samples;Min_cycle;Max_cycle;Signal;HPM_P1;HPM_P2
2023/09/16 00:00:33;;;;;;;13.90;12.10;;;;;;;;;;5111964;27;20285;-74
2023/09/16 00:02:59;;;;;;;13.98;12.48;;;;;;;;;;5142458;27;20245;-74
2023/09/16 00:05:24;;;;;;;16.58;13.18;;;;;;;;;;5138860;27;20221;-74
2023/09/16 00:07:50;;;;;;;19.45;12.57;;;;;;;;;;5117378;27;20332;-75
2023/09/16 00:10:15;;;;;;;18.10;12.43;;;;;;;;;;5130322;27;20207;-72
2023/09/16 00:12:40;;;;;;;20.98;12.80;;;;;;;;;;5137791;27;20629;-73
2023/09/16 00:15:06;;;;;;;19.20;13.02;;;;;;;;;;5133962;27;20186;-73
2023/09/16 00:17:33;;;;;;;17.23;13.80;;;;;;;;;;5113740;27;20304;-73
2023/09/16 00:19:58;;;;;;;17.95;15.05;;;;;;;;;;5134274;27;20178;-73
2023/09/16 00:22:24;;;;;;;16.50;13.90;;;;;;;;;;5150482;27;20200;-73
2023/09/16 00:24:49;;;;;;;18.00;14.73;;;;;;;;;;5144224;27;20310;-73
2023/09/16 00:27:15;;;;;;;20.63;15.57;;;;;;;;;;5145488;27;20608;-73
2023/09/16 00:29:40;;;;;;;17.70;15.38;;;;;;;;;;5139140;27;20309;-73
2023/09/16 00:32:06;;;;;;;17.90;15.40;;;;;;;;;;5150455;27;20197;-73
2023/09/16 00:34:32;;;;;;;25.83;17.33;;;;;;;;;;5121585;27;20194;-73
2023/09/16 00:36:57;;;;;;;24.80;19.38;;;;;;;;;;5124590;27;20189;-73
2023/09/16 00:39:23;;;;;;;26.55;20.30;;;;;;;;;;5146098;27;20584;-73
2023/09/16 00:41:50;;;;;;;34.28;24.08;;;;;;;;;;5137553;27;20213;-73
2023/09/16 00:44:15;;;;;;;31.52;22.95;;;;;;;;;;5145828;27;20305;-73
2023/09/16 00:46:40;;;;;;;37.42;27.73;;;;;;;;;;5134629;27;20296;-73
2023/09/16 00:49:06;;;;;;;36.95;26.75;;;;;;;;;;5137672;27;20217;-73
2023/09/16 00:51:32;;;;;;;38.03;26.50;;;;;;;;;;5136794;27;20513;-73
2023/09/16 00:53:59;;;;;;;38.08;27.77;;;;;;;;;;5109313;27;20246;-73
2023/09/16 00:56:27;;;;;;;35.42;25.73;;;;;;;;;;5136132;27;20234;-73
2023/09/16 00:58:54;;;;;;;30.65;25.08;;;;;;;;;;5140673;27;20182;-73
2023/09/16 01:01:22;;;;;;;33.92;25.13;;;;;;;;;;5136174;27;20637;-73
2023/09/16 01:03:48;;;;;;;38.28;28.00;;;;;;;;;;5122624;27;20565;-73
2023/09/16 01:06:16;;;;;;;33.38;26.15;;;;;;;;;;5113966;27;20194;-73
2023/09/16 01:08:44;;;;;;;39.75;28.08;;;;;;;;;;5121396;27;20234;-73
2023/09/16 01:11:10;;;;;;;35.40;27.55;;;;;;;;;;5121649;27;20190;-73
2023/09/16 01:13:37;;;;;;;38.03;28.48;;;;;;;;;;5141268;27;20197;-73
2023/09/16 01:16:37;;;;;;;37.72;28.02;;;;;;;;;;5130603;27;20276;-72
2023/09/16 01:19:23;;;;;;;35.45;27.05;;;;;;;;;;5113881;27;21485;-72
2023/09/16 01:21:49;;;;;;;35.75;27.63;;;;;;;;;;5144257;27;20218;-73
2023/09/16 01:24:24;;;;;;;37.45;28.65;;;;;;;;;;5143958;27;20620;-73
2023/09/16 01:26:50;;;;;;;44.45;28.23;;;;;;;;;;5139586;27;20320;-73
2023/09/16 01:29:18;;;;;;;45.85;31.33;;;;;;;;;;5113241;27;20314;-73
2023/09/16 01:31:45;;;;;;;47.03;34.38;;;;;;;;;;5136069;27;20599;-73
2023/09/16 01:34:32;;;;;;;46.97;33.60;;;;;;;;;;5129896;27;20214;-73
2023/09/16 01:36:59;;;;;;;43.97;33.38;;;;;;;;;;5137320;27;20186;-73
2023/09/16 01:39:27;;;;;;;44.78;32.88;;;;;;;;;;5135411;27;20252;-73
2023/09/16 01:41:55;;;;;;;43.58;32.40;;;;;;;;;;5108376;27;20530;-73
2023/09/16 01:44:20;;;;;;;37.38;29.67;;;;;;;;;;5135745;27;20220;-73
2023/09/16 01:46:46;;;;;;;37.95;28.73;;;;;;;;;;5115306;27;20635;-73
2023/09/16 01:49:12;;;;;;;34.47;26.02;;;;;;;;;;5131285;27;20201;-73
2023/09/16 01:51:37;;;;;;;30.25;23.58;;;;;;;;;;5124745;27;20274;-73
2023/09/16 01:54:02;;;;;;;25.27;21.60;;;;;;;;;;5119412;27;20178;-73
2023/09/16 01:56:28;;;;;;;26.67;21.48;;;;;;;;;;5132214;27;20630;-73
2023/09/16 01:58:53;;;;;;;26.35;20.85;;;;;;;;;;5113735;27;20232;-73
2023/09/16 02:01:18;;;;;;;24.15;20.50;;;;;;;;;;5141294;27;20207;-73
2023/09/16 02:03:44;;;;;;;27.15;20.23;;;;;;;;;;5130473;27;20262;-73
2023/09/16 02:06:09;;;;;;;21.83;19.17;;;;;;;;;;5136263;27;20696;-74
2023/09/16 02:08:34;;;;;;;21.42;18.80;;;;;;;;;;5140221;27;20291;-74
2023/09/16 02:11:00;;;;;;;23.15;18.70;;;;;;;;;;5111632;27;20202;-74
2023/09/16 02:13:26;;;;;;;22.35;18.42;;;;;;;;;;5130375;27;20674;-74
2023/09/16 02:15:51;;;;;;;23.55;18.33;;;;;;;;;;5150073;27;20246;-73
2023/09/16 02:18:17;;;;;;;21.77;16.58;;;;;;;;;;5145462;27;20283;-74
2023/09/16 02:20:43;;;;;;;22.83;18.42;;;;;;;;;;5116644;27;20251;-74
2023/09/16 02:23:08;;;;;;;23.77;18.20;;;;;;;;;;5131825;27;20299;-74
2023/09/16 02:25:34;;;;;;;21.33;17.65;;;;;;;;;;5139654;27;20201;-73
2023/09/16 02:27:59;;;;;;;23.08;18.60;;;;;;;;;;5140230;27;20182;-73
2023/09/16 02:30:25;;;;;;;21.08;17.77;;;;;;;;;;5138880;27;20214;-73
2023/09/16 02:32:51;;;;;;;22.08;18.52;;;;;;;;;;5133055;27;20201;-73
2023/09/16 02:35:16;;;;;;;19.23;17.05;;;;;;;;;;5120449;27;20250;-73
2023/09/16 02:37:41;;;;;;;18.80;16.83;;;;;;;;;;5124588;27;20190;-73
2023/09/16 02:40:07;;;;;;;21.23;17.55;;;;;;;;;;5142113;27;20565;-73
2023/09/16 02:42:33;;;;;;;22.02;16.92;;;;;;;;;;5133018;27;20278;-73
2023/09/16 02:44:59;;;;;;;23.63;18.13;;;;;;;;;;5133136;27;20703;-73
2023/09/16 02:47:24;;;;;;;21.67;18.30;;;;;;;;;;5146175;27;20237;-73
2023/09/16 02:49:50;;;;;;;21.73;17.08;;;;;;;;;;5114485;27;20705;-73
2023/09/16 02:52:15;;;;;;;21.55;17.15;;;;;;;;;;5131490;27;20222;-73
2023/09/16 02:54:41;;;;;;;18.92;16.92;;;;;;;;;;5135534;27;20588;-73
2023/09/16 02:57:07;;;;;;;21.35;17.40;;;;;;;;;;5139755;27;20222;-73
2023/09/16 02:59:32;;;;;;;20.55;17.35;;;;;;;;;;5120452;27;20197;-73
2023/09/16 03:01:57;;;;;;;21.55;16.88;;;;;;;;;;5117010;27;20193;-73
2023/09/16 03:04:23;;;;;;;21.17;17.20;;;;;;;;;;5147344;27;20581;-73
2023/09/16 03:06:48;;;;;;;24.40;19.17;;;;;;;;;;5124703;27;20191;-73
2023/09/16 03:09:14;;;;;;;24.63;19.08;;;;;;;;;;5115887;27;20212;-73
2023/09/16 03:11:40;;;;;;;25.90;20.00;;;;;;;;;;5137335;27;20185;-73
2023/09/16 03:14:05;;;;;;;23.13;18.60;;;;;;;;;;5125493;27;20640;-73
2023/09/16 03:16:31;;;;;;;22.25;19.05;;;;;;;;;;5141740;27;20269;-73
2023/09/16 03:18:57;;;;;;;20.23;17.88;;;;;;;;;;5143747;27;20217;-73
2023/09/16 03:21:24;;;;;;;19.92;17.85;;;;;;;;;;5114852;27;20185;-73
2023/09/16 03:23:50;;;;;;;21.38;17.48;;;;;;;;;;5135681;27;20223;-73
2023/09/16 03:26:15;;;;;;;21.60;17.35;;;;;;;;;;5121888;27;20214;-73
2023/09/16 03:28:43;;;;;;;21.02;16.70;;;;;;;;;;5117116;27;20243;-71
2023/09/16 03:31:08;;;;;;;19.95;16.13;;;;;;;;;;5136158;27;20187;-72
2023/09/16 03:33:34;;;;;;;19.67;16.63;;;;;;;;;;5139922;27;20182;-72
2023/09/16 03:36:00;;;;;;;21.45;18.42;;;;;;;;;;5136830;27;20251;-72
2023/09/16 03:38:30;;;;;;;23.05;18.15;;;;;;;;;;5144345;27;20209;-72
2023/09/16 03:40:55;;;;;;;23.77;18.00;;;;;;;;;;5113824;27;20218;-72
2023/09/16 03:43:21;;;;;;;21.98;18.48;;;;;;;;;;5145929;27;20217;-72
2023/09/16 03:45:46;;;;;;;19.75;17.25;;;;;;;;;;5143698;27;20191;-72
2023/09/16 03:48:11;;;;;;;20.55;17.60;;;;;;;;;;5147753;27;20194;-72
2023/09/16 03:50:37;;;;;;;21.33;18.17;;;;;;;;;;5148388;27;20175;-72
2023/09/16 03:53:02;;;;;;;23.30;17.27;;;;;;;;;;5148818;27;20226;-72
2023/09/16 03:55:28;;;;;;;21.92;19.25;;;;;;;;;;5143053;27;20556;-72
2023/09/16 03:57:53;;;;;;;22.10;18.75;;;;;;;;;;5142549;27;20201;-72
2023/09/16 04:00:19;;;;;;;21.45;18.33;;;;;;;;;;5119731;27;20174;-72
2023/09/16 04:02:44;;;;;;;26.88;20.13;;;;;;;;;;5105153;27;20270;-72
2023/09/16 04:05:10;;;;;;;23.70;19.05;;;;;;;;;;5131451;27;20544;-72
2023/09/16 04:07:35;;;;;;;27.80;19.55;;;;;;;;;;5137367;27;20218;-72
2023/09/16 04:10:01;;;;;;;24.27;18.75;;;;;;;;;;5102265;27;20215;-72
2023/09/16 04:12:26;;;;;;;22.25;18.80;;;;;;;;;;5135655;27;20205;-72
2023/09/16 04:14:51;;;;;;;21.05;18.58;;;;;;;;;;5121919;27;20228;-72
2023/09/16 04:17:17;;;;;;;25.38;19.45;;;;;;;;;;5133671;27;20215;-72
2023/09/16 04:19:42;;;;;;;22.80;19.15;;;;;;;;;;5136227;27;20262;-72
2023/09/16 04:22:08;;;;;;;26.75;20.15;;;;;;;;;;5132849;27;20282;-72
2023/09/16 04:24:33;;;;;;;24.08;18.40;;;;;;;;;;5147395;27;20285;-72
2023/09/16 04:26:59;;;;;;;20.10;17.35;;;;;;;;;;5136249;27;20221;-72
2023/09/16 04:29:24;;;;;;;20.60;17.70;;;;;;;;;;5133571;27;20214;-72
2023/09/16 04:31:51;;;;;;;23.33;18.25;;;;;;;;;;5139562;27;20186;-72
2023/09/16 04:34:16;;;;;;;23.45;19.00;;;;;;;;;;5140744;27;20189;-72
2023/09/16 04:36:41;;;;;;;20.30;17.15;;;;;;;;;;5144818;27;20506;-72
2023/09/16 04:39:08;;;;;;;19.73;16.60;;;;;;;;;;5139167;27;20191;-72
2023/09/16 04:41:34;;;;;;;19.10;16.52;;;;;;;;;;5145440;27;20220;-72
2023/09/16 04:43:59;;;;;;;22.13;16.38;;;;;;;;;;5100150;27;20574;-73
2023/09/16 04:46:24;;;;;;;22.77;16.85;;;;;;;;;;5133771;27;20201;-72
2023/09/16 04:48:50;;;;;;;19.85;17.08;;;;;;;;;;5120838;27;20272;-72
2023/09/16 04:51:15;;;;;;;21.50;17.25;;;;;;;;;;5135139;27;20880;-72
2023/09/16 04:53:41;;;;;;;20.33;16.25;;;;;;;;;;5138729;27;20258;-72
2023/09/16 04:56:09;;;;;;;20.83;17.23;;;;;;;;;;5142926;27;20386;-72
2023/09/16 04:58:35;;;;;;;19.13;16.88;;;;;;;;;;5142811;27;20182;-72
2023/09/16 05:01:01;;;;;;;21.08;16.73;;;;;;;;;;5119031;27;20202;-72
2023/09/16 05:03:26;;;;;;;20.20;16.27;;;;;;;;;;5121635;27;20200;-72
2023/09/16 05:05:53;;;;;;;19.23;16.92;;;;;;;;;;5128634;27;20618;-72
2023/09/16 05:08:19;;;;;;;18.48;16.48;;;;;;;;;;5131779;27;20202;-72
2023/09/16 05:10:44;;;;;;;20.73;16.65;;;;;;;;;;5142595;27;20624;-72
2023/09/16 05:13:10;;;;;;;20.90;17.45;;;;;;;;;;5115059;27;20269;-72
2023/09/16 05:15:35;;;;;;;24.20;18.38;;;;;;;;;;5136427;27;20198;-72
2023/09/16 05:18:00;;;;;;;21.65;18.33;;;;;;;;;;5115577;27;20282;-72
2023/09/16 05:20:26;;;;;;;21.30;17.73;;;;;;;;;;5142693;27;20510;-72
2023/09/16 05:22:52;;;;;;;22.98;17.92;;;;;;;;;;5119537;27;20186;-72
2023/09/16 05:25:18;;;;;;;21.20;18.38;;;;;;;;;;5136110;27;20501;-72
2023/09/16 05:27:43;;;;;;;20.50;17.83;;;;;;;;;;5131697;27;20324;-72
2023/09/16 05:30:09;;;;;;;21.95;18.40;;;;;;;;;;5140656;27;20217;-72
2023/09/16 05:32:34;;;;;;;20.98;18.15;;;;;;;;;;5139781;27;20276;-72
2023/09/16 05:35:00;;;;;;;26.83;19.60;;;;;;;;;;5136073;27;20266;-72
2023/09/16 05:37:26;;;;;;;21.58;18.02;;;;;;;;;;5132010;27;20194;-72
2023/09/16 05:39:51;;;;;;;22.27;17.98;;;;;;;;;;5124373;27;20181;-72
2023/09/16 05:42:16;;;;;;;22.58;18.23;;;;;;;;;;5134876;27;20213;-73
2023/09/16 05:44:42;;;;;;;21.00;17.70;;;;;;;;;;5150552;27;20238;-73
2023/09/16 05:47:07;;;;;;;22.63;18.98;;;;;;;;;;5135819;27;21528;-74
2023/09/16 05:49:33;;;;;;;21.85;17.90;;;;;;;;;;5128947;27;20309;-73
2023/09/16 05:51:58;;;;;;;23.02;19.77;;;;;;;;;;5115776;27;20259;-73
2023/09/16 05:54:26;;;;;;;22.35;17.85;;;;;;;;;;5136228;27;20599;-72
2023/09/16 05:56:51;;;;;;;23.77;18.40;;;;;;;;;;5143124;27;20257;-72
2023/09/16 05:59:17;;;;;;;23.20;18.77;;;;;;;;;;5143575;27;20179;-72
2023/09/16 06:01:43;;;;;;;22.83;19.02;;;;;;;;;;5140611;27;20571;-72
2023/09/16 06:04:08;;;;;;;21.02;17.88;;;;;;;;;;5126684;27;20182;-73
2023/09/16 06:06:35;;;;;;;21.95;18.17;;;;;;;;;;5118357;27;20566;-73
2023/09/16 06:09:00;;;;;;;18.67;16.42;;;;;;;;;;5119329;27;20305;-73
2023/09/16 06:11:28;;;;;;;21.77;17.52;;;;;;;;;;5139229;27;20363;-73
2023/09/16 06:13:54;;;;;;;22.92;17.45;;;;;;;;;;5149742;27;20190;-73
2023/09/16 06:16:19;;;;;;;23.45;17.38;;;;;;;;;;5146779;27;20245;-73
2023/09/16 06:18:45;;;;;;;18.85;16.13;;;;;;;;;;5136601;27;20263;-73
2023/09/16 06:21:10;;;;;;;20.80;16.25;;;;;;;;;;5145406;27;20177;-73
2023/09/16 06:23:36;;;;;;;17.85;15.48;;;;;;;;;;5137277;27;20190;-73
2023/09/16 06:26:01;;;;;;;20.30;16.80;;;;;;;;;;5136525;27;20253;-73
2023/09/16 06:28:26;;;;;;;19.27;16.67;;;;;;;;;;5141427;27;20229;-73
2023/09/16 06:30:53;;;;;;;20.65;15.23;;;;;;;;;;5122668;27;20670;-73
2023/09/16 06:33:18;;;;;;;19.30;14.93;;;;;;;;;;5142905;27;20699;-73
2023/09/16 06:35:44;;;;;;;18.70;14.73;;;;;;;;;;5134100;27;20226;-73
2023/09/16 06:38:09;;;;;;;19.10;15.38;;;;;;;;;;5115810;27;20642;-73
2023/09/16 06:40:35;;;;;;;20.27;16.20;;;;;;;;;;5147124;27;20266;-73
2023/09/16 06:43:00;;;;;;;18.83;14.90;;;;;;;;;;5144043;27;20446;-73
2023/09/16 06:45:25;;;;;;;16.95;14.23;;;;;;;;;;5127134;27;20214;-73
2023/09/16 06:47:51;;;;;;;17.25;14.00;;;;;;;;;;5137317;27;20665;-73
2023/09/16 06:50:16;;;;;;;17.90;14.80;;;;;;;;;;5135370;27;20225;-73
2023/09/16 06:52:42;;;;;;;18.25;14.30;;;;;;;;;;5127771;27;20238;-73
2023/09/16 06:55:08;;;;;;;17.58;15.02;;;;;;;;;;5146010;27;20191;-73
2023/09/16 06:57:33;;;;;;;17.70;14.63;;;;;;;;;;5132733;27;20634;-74
2023/09/16 06:59:58;;;;;;;17.35;13.77;;;;;;;;;;5123390;27;20248;-74
2023/09/16 07:02:24;;;;;;;16.42;14.73;;;;;;;;;;5139024;27;20625;-73
2023/09/16 07:04:50;;;;;;;17.35;14.88;;;;;;;;;;5121104;27;20183;-73
2023/09/16 07:07:15;;;;;;;20.23;15.00;;;;;;;;;;5147872;27;20229;-73
2023/09/16 07:09:41;;;;;;;18.30;15.15;;;;;;;;;;5120960;27;20651;-72
2023/09/16 07:12:07;;;;;;;17.88;15.30;;;;;;;;;;5116051;27;20186;-72
2023/09/16 07:14:35;;;;;;;18.10;14.88;;;;;;;;;;5131075;27;20254;-72
2023/09/16 07:17:01;;;;;;;17.00;14.63;;;;;;;;;;5113050;27;20225;-73
2023/09/16 07:19:26;;;;;;;16.83;14.73;;;;;;;;;;5133445;27;20183;-73
2023/09/16 07:21:51;;;;;;;14.02;12.57;;;;;;;;;;5129375;27;20188;-73
2023/09/16 07:24:17;;;;;;;17.02;15.13;;;;;;;;;;5134770;27;20505;-73
2023/09/16 07:26:44;;;;;;;17.80;15.13;;;;;;;;;;5136941;27;20214;-73
2023/09/16 07:29:09;;;;;;;15.90;14.05;;;;;;;;;;5145270;27;20198;-73
2023/09/16 07:31:35;;;;;;;17.95;14.73;;;;;;;;;;5141712;27;20205;-73
2023/09/16 07:34:00;;;;;;;17.85;15.40;;;;;;;;;;5138170;27;20220;-73
2023/09/16 07:36:26;;;;;;;17.05;14.13;;;;;;;;;;5122402;27;20518;-73
2023/09/16 07:38:51;;;;;;;19.13;15.25;;;;;;;;;;5119857;27;20198;-73
2023/09/16 07:41:18;;;;;;;18.13;15.43;;;;;;;;;;5144210;27;20266;-73
2023/09/16 07:43:43;;;;;;;17.70;15.57;;;;;;;;;;5116383;27;20179;-73
2023/09/16 07:46:08;;;;;;;17.65;15.38;;;;;;;;;;5118478;27;20873;-73
2023/09/16 07:48:34;;;;;;;21.98;16.23;;;;;;;;;;5114533;27;20680;-73
2023/09/16 07:50:59;;;;;;;18.00;16.15;;;;;;;;;;5140827;27;20213;-74
2023/09/16 07:53:24;;;;;;;20.73;16.17;;;;;;;;;;5105654;27;20691;-73
2023/09/16 07:55:50;;;;;;;18.38;14.45;;;;;;;;;;5135154;27;20230;-73
2023/09/16 07:58:15;;;;;;;17.13;14.35;;;;;;;;;;5122037;27;20193;-73
2023/09/16 08:00:41;;;;;;;16.35;14.27;;;;;;;;;;5136574;27;20183;-73
2023/09/16 08:03:06;;;;;;;20.20;14.52;;;;;;;;;;5135708;27;20194;-73
2023/09/16 08:05:31;;;;;;;16.70;13.90;;;;;;;;;;5139718;27;20301;-73
2023/09/16 08:07:57;;;;;;;15.38;13.77;;;;;;;;;;5132837;27;20642;-73
2023/09/16 08:10:22;;;;;;;15.70;13.95;;;;;;;;;;5142530;27;20226;-73
2023/09/16 08:12:47;;;;;;;17.58;15.15;;;;;;;;;;5122528;27;20196;-73
2023/09/16 08:15:13;;;;;;;16.33;14.38;;;;;;;;;;5139158;27;20210;-74
2023/09/16 08:17:38;;;;;;;20.63;15.70;;;;;;;;;;5134413;27;20232;-74
2023/09/16 08:20:08;;;;;;;22.20;16.70;;;;;;;;;;5133410;27;20190;-74
2023/09/16 08:22:33;;;;;;;17.65;15.50;;;;;;;;;;5135299;27;20449;-74
2023/09/16 08:24:59;;;;;;;18.08;15.65;;;;;;;;;;5132657;27;20360;-74
2023/09/16 08:27:25;;;;;;;17.35;15.55;;;;;;;;;;5116595;27;20183;-74
2023/09/16 08:29:52;;;;;;;19.52;16.02;;;;;;;;;;5136472;27;20218;-74
2023/09/16 08:32:18;;;;;;;17.45;15.05;;;;;;;;;;5130002;27;20213;-74
2023/09/16 08:34:44;;;;;;;18.60;15.15;;;;;;;;;;5133584;27;20653;-74
2023/09/16 08:37:11;;;;;;;16.73;14.48;;;;;;;;;;5140075;27;20228;-74
2023/09/16 08:39:37;;;;;;;15.68;13.98;;;;;;;;;;5148748;27;20189;-74
2023/09/16 08:42:11;;;;;;;18.25;14.50;;;;;;;;;;5134752;27;20191;-74
2023/09/16 08:44:38;;;;;;;16.80;12.45;;;;;;;;;;5140482;27;20539;-74
2023/09/16 08:47:14;;;;;;;15.15;11.60;;;;;;;;;;5137992;27;20186;-74
2023/09/16 08:49:52;;;;;;;13.45;10.93;;;;;;;;;;5142102;27;20210;-74
2023/09/16 08:52:19;;;;;;;12.98;11.68;;;;;;;;;;5137755;27;20186;-74
2023/09/16 08:54:47;;;;;;;12.63;11.15;;;;;;;;;;5138027;27;20185;-74
2023/09/16 08:57:14;;;;;;;12.82;10.10;;;;;;;;;;5146419;27;20629;-74
2023/09/16 08:59:40;;;;;;;12.02;10.77;;;;;;;;;;5140846;27;20190;-74
2023/09/16 09:02:08;;;;;;;12.45;11.13;;;;;;;;;;5145757;27;20258;-74
2023/09/16 09:04:34;;;;;;;11.60;10.38;;;;;;;;;;5115002;27;20530;-74
2023/09/16 09:07:00;;;;;;;15.02;10.82;;;;;;;;;;5148179;27;20182;-74
2023/09/16 09:09:25;;;;;;;12.15;10.45;;;;;;;;;;5134413;27;20283;-74
2023/09/16 09:11:53;;;;;;;12.82;11.20;;;;;;;;;;5117627;27;20187;-74
2023/09/16 09:14:20;;;;;;;12.43;10.77;;;;;;;;;;5116639;27;20248;-74
2023/09/16 09:16:46;;;;;;;13.75;11.68;;;;;;;;;;5149205;27;20181;-74
2023/09/16 09:19:13;;;;;;;18.38;12.00;;;;;;;;;;5117678;27;20527;-76
2023/09/16 09:21:40;;;;;;;17.00;10.95;;;;;;;;;;5109599;27;20191;-75
2023/09/16 09:24:06;;;;;;;12.63;9.90;;;;;;;;;;5120837;27;20186;-75
2023/09/16 09:26:31;;;;;;;10.80;9.45;;;;;;;;;;5133798;27;20218;-73
2023/09/16 09:28:58;;;;;;;10.93;9.80;;;;;;;;;;5139900;27;20313;-73
2023/09/16 09:31:25;;;;;;;12.10;8.07;;;;;;;;;;5140377;27;20186;-74
2023/09/16 09:33:51;;;;;;;10.32;8.60;;;;;;;;;;5125138;27;20569;-74
2023/09/16 09:36:18;;;;;;;9.55;8.05;;;;;;;;;;5141488;27;20258;-74
2023/09/16 09:38:45;;;;;;;9.60;8.60;;;;;;;;;;5138468;27;20175;-73
2023/09/16 09:41:11;;;;;;;9.73;8.73;;;;;;;;;;5111353;27;20193;-74
2023/09/16 09:43:36;;;;;;;10.18;7.97;;;;;;;;;;5136942;27;20194;-75
2023/09/16 09:46:02;;;;;;;8.60;7.70;;;;;;;;;;5138945;27;20278;-75
2023/09/16 09:48:32;;;;;;;10.95;7.18;;;;;;;;;;5150790;27;20525;-73
2023/09/16 09:50:59;;;;;;;9.40;7.40;;;;;;;;;;5139400;27;20189;-74
2023/09/16 09:53:26;;;;;;;10.25;9.18;;;;;;;;;;5135590;27;20678;-74
2023/09/16 09:55:53;;;;;;;10.13;7.78;;;;;;;;;;5114207;27;20226;-74
2023/09/16 09:58:18;;;;;;;8.40;6.47;;;;;;;;;;5107955;28;20194;-74
2023/09/16 10:00:50;;;;;;;8.07;6.75;;;;;;;;;;5123322;27;20570;-75
2023/09/16 10:03:21;;;;;;;9.15;6.28;;;;;;;;;;5122736;27;20183;-75
2023/09/16 10:05:47;;;;;;;6.93;5.88;;;;;;;;;;5117424;27;20499;-75
2023/09/16 10:08:13;;;;;;;5.68;5.00;;;;;;;;;;5129042;27;20186;-74
2023/09/16 10:10:40;;;;;;;6.65;5.03;;;;;;;;;;5116917;27;20331;-74
2023/09/16 10:13:05;;;;;;;6.72;5.03;;;;;;;;;;5119897;27;20203;-74
2023/09/16 10:15:33;;;;;;;8.20;5.43;;;;;;;;;;5120172;27;20187;-74
2023/09/16 10:17:59;;;;;;;7.55;5.30;;;;;;;;;;5122675;27;20271;-74
2023/09/16 10:20:28;;;;;;;7.57;5.72;;;;;;;;;;5125945;27;20171;-74
2023/09/16 10:22:54;;;;;;;7.00;5.78;;;;;;;;;;5118253;27;20198;-74
2023/09/16 10:25:21;;;;;;;7.82;6.30;;;;;;;;;;5119111;27;20230;-74
2023/09/16 10:28:01;;;;;;;8.00;6.90;;;;;;;;;;5125989;27;20194;-74
2023/09/16 10:30:27;;;;;;;6.38;5.78;;;;;;;;;;5123946;27;20218;-74
2023/09/16 10:32:53;;;;;;;9.10;7.22;;;;;;;;;;5116374;27;20583;-74
2023/09/16 10:35:20;;;;;;;9.63;7.35;;;;;;;;;;5121468;27;20219;-74
2023/09/16 10:37:48;;;;;;;9.00;6.35;;;;;;;;;;5127087;27;20573;-74
2023/09/16 10:40:17;;;;;;;6.88;6.18;;;;;;;;;;5123246;27;20270;-74
2023/09/16 10:42:45;;;;;;;7.00;5.25;;;;;;;;;;5123005;27;20655;-74
2023/09/16 10:45:13;;;;;;;6.80;5.68;;;;;;;;;;5123688;27;20186;-74
2023/09/16 10:47:39;;;;;;;9.77;5.53;;;;;;;;;;5118531;27;20190;-75
2023/09/16 10:50:04;;;;;;;6.50;4.70;;;;;;;;;;5113672;27;20553;-75
2023/09/16 10:52:40;;;;;;;8.23;4.80;;;;;;;;;;5119860;27;20205;-74
2023/09/16 10:55:31;;;;;;;4.55;4.05;;;;;;;;;;5107823;27;20726;-74
2023/09/16 10:58:13;;;;;;;5.72;3.95;;;;;;;;;;5101120;28;20514;-74
2023/09/16 11:00:49;;;;;;;4.30;3.17;;;;;;;;;;5091762;28;20187;-74
2023/09/16 11:03:15;;;;;;;3.30;2.92;;;;;;;;;;5099065;28;20737;-74
2023/09/16 11:05:41;;;;;;;6.50;3.30;;;;;;;;;;5109052;28;20244;-74
2023/09/16 11:08:09;;;;;;;3.90;3.38;;;;;;;;;;5089932;28;20651;-74
2023/09/16 11:10:35;;;;;;;6.90;3.35;;;;;;;;;;5091139;28;20260;-74
2023/09/16 11:13:02;;;;;;;4.47;3.55;;;;;;;;;;5103511;28;20199;-74
2023/09/16 11:15:32;;;;;;;4.65;3.30;;;;;;;;;;5103482;28;20206;-74
2023/09/16 11:18:07;;;;;;;5.13;3.53;;;;;;;;;;5088710;28;20202;-75
2023/09/16 11:20:34;;;;;;;4.32;3.20;;;;;;;;;;5099339;28;20190;-74
2023/09/16 11:23:01;;;;;;;7.68;4.32;;;;;;;;;;5097784;28;21051;-75
2023/09/16 11:25:32;;;;;;;8.05;4.88;;;;;;;;;;5101353;28;20219;-74
2023/09/16 11:27:57;;;;;;;5.72;4.53;;;;;;;;;;5095646;28;20260;-74
2023/09/16 11:30:22;;;;;;;6.32;3.97;;;;;;;;;;5102823;28;20223;-74
2023/09/16 11:32:54;;;;;;;6.65;4.43;;;;;;;;;;5095078;28;20602;-74
2023/09/16 11:35:19;;;;;;;4.55;3.72;;;;;;;;;;5095743;28;20194;-75
2023/09/16 11:37:45;;;;;;;5.35;3.95;;;;;;;;;;5105113;28;20187;-74
2023/09/16 11:40:10;;;;;;;6.55;4.10;;;;;;;;;;5105318;28;20555;-74
2023/09/16 11:42:36;;;;;;;4.65;3.80;;;;;;;;;;5105271;28;20195;-74
2023/09/16 11:45:02;;;;;;;5.57;4.07;;;;;;;;;;5097074;28;20660;-74
2023/09/16 11:47:31;;;;;;;5.72;5.00;;;;;;;;;;5095694;28;20291;-74
2023/09/16 11:49:56;;;;;;;7.80;4.63;;;;;;;;;;5105309;28;20203;-74
2023/09/16 11:52:21;;;;;;;8.70;4.68;;;;;;;;;;5102520;28;20192;-74
2023/09/16 11:54:47;;;;;;;8.77;4.45;;;;;;;;;;5101373;28;20203;-74
2023/09/16 11:57:13;;;;;;;5.82;4.93;;;;;;;;;;5123757;27;20235;-74
2023/09/16 11:59:39;;;;;;;6.15;5.55;;;;;;;;;;5140127;27;20577;-74
2023/09/16 12:02:06;;;;;;;6.75;4.75;;;;;;;;;;5150364;27;20274;-74
2023/09/16 12:04:34;;;;;;;6.43;5.13;;;;;;;;;;5125884;27;20229;-74
2023/09/16 12:06:59;;;;;;;8.63;5.53;;;;;;;;;;5131730;27;20198;-74
2023/09/16 12:09:25;;;;;;;4.88;4.38;;;;;;;;;;5132318;27;20690;-74
2023/09/16 12:11:51;;;;;;;8.32;6.47;;;;;;;;;;5144992;27;20218;-74
2023/09/16 12:14:17;;;;;;;8.93;6.32;;;;;;;;;;5131672;27;20190;-74
2023/09/16 12:16:42;;;;;;;9.93;6.20;;;;;;;;;;5113472;27;20179;-74
2023/09/16 12:19:08;;;;;;;6.75;6.00;;;;;;;;;;5142322;27;20670;-74
2023/09/16 12:21:34;;;;;;;6.57;5.57;;;;;;;;;;5146404;27;20236;-75
2023/09/16 12:23:59;;;;;;;8.10;5.38;;;;;;;;;;5137785;27;20268;-74
2023/09/16 12:26:25;;;;;;;6.07;4.90;;;;;;;;;;5144840;27;20182;-74
2023/09/16 12:28:51;;;;;;;5.10;4.60;;;;;;;;;;5149954;27;20212;-74
2023/09/16 12:31:23;;;;;;;5.32;4.60;;;;;;;;;;5131667;27;20222;-74
2023/09/16 12:33:53;;;;;;;10.65;5.82;;;;;;;;;;5119217;27;20477;-74
2023/09/16 12:36:29;;;;;;;5.90;4.97;;;;;;;;;;5132884;27;20414;-74
2023/09/16 12:39:01;;;;;;;7.57;5.75;;;;;;;;;;5141226;27;20237;-74
2023/09/16 12:41:28;;;;;;;7.57;5.75;;;;;;;;;;5112659;27;20279;-74
2023/09/16 12:43:56;;;;;;;7.60;5.63;;;;;;;;;;5126339;27;20202;-75
2023/09/16 12:46:23;;;;;;;5.90;5.00;;;;;;;;;;5131421;27;20190;-74
2023/09/16 12:48:50;;;;;;;8.25;5.40;;;;;;;;;;5130383;27;20214;-74
2023/09/16 12:51:20;;;;;;;7.82;5.53;;;;;;;;;;5132006;27;20273;-74
2023/09/16 12:53:46;;;;;;;8.95;5.65;;;;;;;;;;5119699;27;20286;-74
2023/09/16 12:56:16;;;;;;;6.85;5.10;;;;;;;;;;5138090;27;20226;-75
2023/09/16 12:58:42;;;;;;;8.10;5.45;;;;;;;;;;5138297;27;20190;-75
2023/09/16 13:01:08;;;;;;;6.93;4.35;;;;;;;;;;5100399;27;20201;-75
2023/09/16 13:03:41;;;;;;;5.72;4.88;;;;;;;;;;5141306;27;20561;-75
2023/09/16 13:06:06;;;;;;;8.70;4.97;;;;;;;;;;5144029;27;20190;-75
2023/09/16 13:08:33;;;;;;;5.63;5.00;;;;;;;;;;5144819;27;20185;-75
2023/09/16 13:10:59;;;;;;;6.70;4.82;;;;;;;;;;5117435;27;20201;-75
2023/09/16 13:13:28;;;;;;;5.57;4.85;;;;;;;;;;5147074;27;20198;-75
2023/09/16 13:15:54;;;;;;;7.43;4.80;;;;;;;;;;5129599;27;20279;-75
2023/09/16 13:18:19;;;;;;;5.28;4.00;;;;;;;;;;5138528;27;20293;-75
2023/09/16 13:20:46;;;;;;;6.65;4.40;;;;;;;;;;5131428;27;20191;-75
2023/09/16 13:23:24;;;;;;;8.35;4.35;;;;;;;;;;5142570;27;20186;-74
2023/09/16 13:25:50;;;;;;;5.32;3.60;;;;;;;;;;5158948;27;20199;-75
2023/09/16 13:28:18;;;;;;;6.43;4.82;;;;;;;;;;5133228;27;20190;-74
2023/09/16 13:30:48;;;;;;;4.60;4.05;;;;;;;;;;5112833;27;20655;-75
2023/09/16 13:33:14;;;;;;;4.70;4.07;;;;;;;;;;4429522;27;10000729;-75
2023/09/16 13:35:43;;;;;;;5.22;4.30;;;;;;;;;;5111980;27;20185;-75
2023/09/16 13:38:09;;;;;;;6.43;4.22;;;;;;;;;;5129109;27;20190;-75
2023/09/16 13:40:35;;;;;;;6.28;4.10;;;;;;;;;;5129325;27;20186;-75
2023/09/16 13:43:01;;;;;;;4.80;4.30;;;;;;;;;;5114763;28;20191;-75
2023/09/16 13:45:29;;;;;;;4.22;3.83;;;;;;;;;;5115833;27;20329;-75
2023/09/16 13:48:13;;;;;;;6.05;4.03;;;;;;;;;;5128078;27;20194;-75
2023/09/16 13:50:41;;;;;;;4.50;3.45;;;;;;;;;;5130256;27;20213;-75
2023/09/16 13:53:08;;;;;;;3.63;3.30;;;;;;;;;;5102677;27;20186;-75
2023/09/16 13:55:34;;;;;;;6.05;3.80;;;;;;;;;;5112413;27;20199;-74
2023/09/16 13:57:59;;;;;;;4.68;3.60;;;;;;;;;;5124717;27;20630;-75
2023/09/16 14:00:25;;;;;;;4.40;3.25;;;;;;;;;;5121175;27;20197;-74
2023/09/16 14:02:50;;;;;;;4.40;3.35;;;;;;;;;;5126817;27;20596;-74
2023/09/16 14:05:16;;;;;;;5.20;3.72;;;;;;;;;;5117376;27;20198;-74
2023/09/16 14:07:41;;;;;;;4.28;3.63;;;;;;;;;;5137532;27;20294;-75
2023/09/16 14:10:07;;;;;;;4.70;3.63;;;;;;;;;;5122373;27;20218;-74
2023/09/16 14:12:32;;;;;;;4.60;4.03;;;;;;;;;;5139664;27;20247;-74
2023/09/16 14:14:58;;;;;;;3.75;3.45;;;;;;;;;;5120492;27;20193;-74
2023/09/16 14:17:24;;;;;;;4.07;3.42;;;;;;;;;;5132404;27;20630;-75
2023/09/16 14:19:49;;;;;;;4.22;3.78;;;;;;;;;;5142513;27;20213;-74
2023/09/16 14:22:15;;;;;;;5.57;3.92;;;;;;;;;;5110906;27;20265;-74